KDEC/DEC METAR and TAF weather

Enter ICAO airport designator
Station Type Date Time Source
KDEC METAR 2019/02/23 16:54 UTC NOAA

KDEC 231654Z 14009KT 4SM BR OVC004 06/04 A2987 RMK AO2 SLP120 T00610044


Station Type Date Time Source
KDEC Decoded METAR 2019/02/23 16:54 UTC NOAA

DECATUR AIRPORT, IL, United States (KDEC) 39-50N 88-52W 207M
Feb 23, 2019 - 11:54 AM EST / 2019.02.23 1654 UTC
Wind: from the SE (140 degrees) at 10 MPH (9 KT):0
Visibility: 4 mile(s):0
Sky conditions: overcast
Weather: mist
Temperature: 43.0 F (6.1 C)
Dew Point: 39.9 F (4.4 C)
Relative Humidity: 88%
Pressure (altimeter): 29.87 in. Hg (1011 hPa)
ob: KDEC 231654Z 14009KT 4SM BR OVC004 06/04 A2987 RMK AO2 SLP120 T00610044
cycle: 17

Station Type Date Time Source
KDEC TAF 2019/02/23 12:30 UTC NOAA

TAF KDEC 231128Z 2312/2412 11010KT P6SM VCSH OVC009
FM231700 14010KT P6SM VCSH OVC005
FM232100 14012KT 5SM -SHRA VCTS OVC008CB
FM240000 19015G23KT 5SM -SHRA VCTS BKN007CB WS020/18050KT
FM240300 21016G24KT P6SM VCSH BKN035 WS020/22045KT
FM240800 25026G41KT P6SM OVC018


Example: see airport list